Time;durP1;ratioP1;P1;durP2;ratioP2;P2;SDS_P1;SDS_P2;PMS_P1;PMS_P2;Temp;Humidity;BMP_temperature;BMP_pressure;BME280_temperature;BME280_humidity;BME280_pressure;Samples;Min_cycle;Max_cycle;Signal;HPM_P1;HPM_P2
2021/06/04 00:01:29;;;;;;;;;;;24.40;51.40;;;;;;5037266;28;19921;-59
2021/06/04 00:03:55;;;;;;;;;;;24.40;51.40;;;;;;5020218;28;19920;-59
2021/06/04 00:06:21;;;;;;;;;;;24.40;51.10;;;;;;5020372;28;20004;-60
2021/06/04 00:08:49;;;;;;;;;;;24.40;51.30;;;;;;5019739;28;19924;-59
2021/06/04 00:11:22;;;;;;;;;;;24.30;50.90;;;;;;5037676;28;19946;-59
2021/06/04 00:13:50;;;;;;;;;;;24.30;50.50;;;;;;5019530;28;19924;-59
2021/06/04 00:16:17;;;;;;;;;;;24.40;50.50;;;;;;5020367;28;20008;-60
2021/06/04 00:18:43;;;;;;;;;;;24.30;51.00;;;;;;5018845;28;19955;-60
2021/06/04 00:21:09;;;;;;;;;;;24.40;51.30;;;;;;5019806;28;19964;-60
2021/06/04 00:23:35;;;;;;;;;;;24.40;51.30;;;;;;5019387;28;19917;-59
2021/06/04 00:26:01;;;;;;;;;;;24.40;51.30;;;;;;5036811;28;19927;-60
2021/06/04 00:28:26;;;;;;;;;;;24.40;51.40;;;;;;5037342;28;19917;-59
2021/06/04 00:30:52;;;;;;;;;;;24.30;50.90;;;;;;5038001;28;19917;-60
2021/06/04 00:33:18;;;;;;;;;;;24.30;50.80;;;;;;5019788;28;19921;-60
2021/06/04 00:35:43;;;;;;;;;;;24.30;50.50;;;;;;5003562;28;19952;-60
2021/06/04 00:38:09;;;;;;;;;;;24.30;50.40;;;;;;5019793;28;19947;-60
2021/06/04 00:40:37;;;;;;;;;;;24.30;50.10;;;;;;5037093;28;19929;-60
2021/06/04 00:43:02;;;;;;;;;;;24.30;50.00;;;;;;5037425;28;20534;-59
2021/06/04 00:45:30;;;;;;;;;;;24.30;50.70;;;;;;5030970;28;19963;-59
2021/06/04 00:47:56;;;;;;;;;;;24.30;50.30;;;;;;5039683;28;19916;-60
2021/06/04 00:50:29;;;;;;;;;;;24.30;50.40;;;;;;5019623;28;19923;-61
2021/06/04 00:52:54;;;;;;;;;;;24.30;49.80;;;;;;5017863;28;19923;-59
2021/06/04 00:55:20;;;;;;;;;;;24.30;49.90;;;;;;5018677;28;19921;-59
2021/06/04 00:57:45;;;;;;;;;;;24.30;50.00;;;;;;5018548;28;20344;-60
2021/06/04 01:00:12;;;;;;;;;;;24.20;50.30;;;;;;5035223;28;19920;-60
2021/06/04 01:02:38;;;;;;;;;;;24.30;50.00;;;;;;5036358;28;19921;-60
2021/06/04 01:05:06;;;;;;;;;;;24.30;50.00;;;;;;5019013;28;20026;-60
2021/06/04 01:07:33;;;;;;;;;;;24.20;50.10;;;;;;5036061;28;20091;-59
2021/06/04 01:10:10;;;;;;;;;;;24.20;49.70;;;;;;5018517;28;19975;-60
2021/06/04 01:12:39;;;;;;;;;;;24.20;50.50;;;;;;5033217;28;19920;-59
2021/06/04 01:15:13;;;;;;;;;;;24.30;50.50;;;;;;5018782;28;20011;-59
2021/06/04 01:18:00;;;;;;;;;;;24.20;50.50;;;;;;5018094;28;20385;-60
2021/06/04 01:20:26;;;;;;;;;;;24.20;51.00;;;;;;5025107;28;20401;-60
2021/06/04 01:23:10;;;;;;;;;;;24.20;50.60;;;;;;5019787;28;19924;-59
2021/06/04 01:25:45;;;;;;;;;;;24.20;50.40;;;;;;5038302;28;19917;-59
2021/06/04 01:28:21;;;;;;;;;;;24.20;50.50;;;;;;5036249;28;20398;-59
2021/06/04 01:30:48;;;;;;;;;;;24.20;50.70;;;;;;5020072;28;19916;-58
2021/06/04 01:33:23;;;;;;;;;;;24.30;51.10;;;;;;5019399;28;19920;-60
2021/06/04 01:35:50;;;;;;;;;;;24.20;50.90;;;;;;5019574;28;19920;-60
2021/06/04 01:38:16;;;;;;;;;;;24.20;50.80;;;;;;5019584;28;20028;-60
2021/06/04 01:40:43;;;;;;;;;;;24.20;50.40;;;;;;5019191;28;20019;-60
2021/06/04 01:43:12;;;;;;;;;;;24.20;50.20;;;;;;5020306;28;19916;-59
2021/06/04 01:45:39;;;;;;;;;;;24.20;50.30;;;;;;5019037;28;19988;-59
2021/06/04 01:48:09;;;;;;;;;;;24.20;50.90;;;;;;5021246;28;19924;-60
2021/06/04 01:50:37;;;;;;;;;;;24.20;50.50;;;;;;5041583;28;20356;-60
2021/06/04 01:53:13;;;;;;;;;;;24.20;50.70;;;;;;5023321;28;19925;-60
2021/06/04 01:55:40;;;;;;;;;;;24.20;50.80;;;;;;5037696;28;20268;-59
2021/06/04 01:58:07;;;;;;;;;;;24.20;50.50;;;;;;5015845;28;20504;-59
2021/06/04 02:00:49;;;;;;;;;;;24.20;50.80;;;;;;5041432;28;19932;-60
2021/06/04 02:03:15;;;;;;;;;;;24.20;50.80;;;;;;5017097;28;19927;-60
2021/06/04 02:05:40;;;;;;;;;;;24.20;50.80;;;;;;5023667;28;19928;-60
2021/06/04 02:08:07;;;;;;;;;;;24.20;50.60;;;;;;5034938;28;20322;-59
2021/06/04 02:10:37;;;;;;;;;;;24.20;50.70;;;;;;5022952;28;19921;-60
2021/06/04 02:13:03;;;;;;;;;;;24.20;50.70;;;;;;5013379;28;19928;-60
2021/06/04 02:15:30;;;;;;;;;;;24.20;50.70;;;;;;5041037;28;19943;-60
2021/06/04 02:18:04;;;;;;;;;;;24.20;50.80;;;;;;5040845;28;20409;-58
2021/06/04 02:20:35;;;;;;;;;;;24.20;50.90;;;;;;5036908;28;20299;-59
2021/06/04 02:23:01;;;;;;;;;;;24.20;50.80;;;;;;5039841;28;20305;-59
2021/06/04 02:25:47;;;;;;;;;;;24.20;50.90;;;;;;5039851;28;19920;-58
2021/06/04 02:28:18;;;;;;;;;;;24.20;50.90;;;;;;5040363;28;20456;-60
2021/06/04 02:30:48;;;;;;;;;;;24.20;50.90;;;;;;5023019;28;20568;-59
2021/06/04 02:33:19;;;;;;;;;;;24.20;51.00;;;;;;5022477;28;19925;-59
2021/06/04 02:35:46;;;;;;;;;;;24.20;51.10;;;;;;5023234;28;19916;-60
2021/06/04 02:38:14;;;;;;;;;;;24.20;51.20;;;;;;5022199;28;19928;-60
2021/06/04 02:40:41;;;;;;;;;;;24.20;51.30;;;;;;5022669;28;19924;-60
2021/06/04 02:43:15;;;;;;;;;;;24.20;51.40;;;;;;5039241;28;20026;-58
2021/06/04 02:45:47;;;;;;;;;;;24.20;51.30;;;;;;5040249;28;19925;-58
2021/06/04 02:48:14;;;;;;;;;;;24.20;51.40;;;;;;5022067;28;19940;-59
2021/06/04 02:50:45;;;;;;;;;;;24.10;51.50;;;;;;5039912;28;19917;-59
2021/06/04 02:53:13;;;;;;;;;;;24.20;51.50;;;;;;5039230;28;19921;-60
2021/06/04 02:55:38;;;;;;;;;;;24.20;51.60;;;;;;5039696;28;19920;-59
2021/06/04 02:58:04;;;;;;;;;;;24.20;51.60;;;;;;5021673;28;20415;-59
2021/06/04 03:00:35;;;;;;;;;;;24.20;51.60;;;;;;5020867;28;19924;-59
2021/06/04 03:03:00;;;;;;;;;;;24.10;51.50;;;;;;5039383;28;19927;-59
2021/06/04 03:05:28;;;;;;;;;;;24.20;51.50;;;;;;5039706;28;19917;-60
2021/06/04 03:07:53;;;;;;;;;;;24.10;51.50;;;;;;5022207;28;19955;-59
2021/06/04 03:10:21;;;;;;;;;;;24.20;51.70;;;;;;5021135;28;20429;-60
2021/06/04 03:12:47;;;;;;;;;;;24.20;51.50;;;;;;5021829;28;19923;-59
2021/06/04 03:15:21;;;;;;;;;;;24.10;51.60;;;;;;5039158;28;20364;-59
2021/06/04 03:17:47;;;;;;;;;;;24.20;51.60;;;;;;5020804;28;19928;-59
2021/06/04 03:20:14;;;;;;;;;;;24.10;51.60;;;;;;5019993;28;19971;-59
2021/06/04 03:22:40;;;;;;;;;;;24.10;51.50;;;;;;5038738;28;20386;-59
2021/06/04 03:25:07;;;;;;;;;;;24.10;51.50;;;;;;5039045;28;19974;-59
2021/06/04 03:27:33;;;;;;;;;;;24.10;52.20;;;;;;5038665;28;19947;-59
2021/06/04 03:29:58;;;;;;;;;;;24.10;51.70;;;;;;5038296;28;20596;-60
2021/06/04 03:32:24;;;;;;;;;;;24.10;51.60;;;;;;5039391;28;19920;-60
2021/06/04 03:34:49;;;;;;;;;;;24.20;51.70;;;;;;5021284;28;19917;-60
2021/06/04 03:37:15;;;;;;;;;;;24.10;51.70;;;;;;5021885;28;21502;-59
2021/06/04 03:39:42;;;;;;;;;;;24.10;51.60;;;;;;5039191;28;20389;-59
2021/06/04 03:42:08;;;;;;;;;;;24.20;51.70;;;;;;5039049;28;19921;-59
2021/06/04 03:44:35;;;;;;;;;;;24.10;51.60;;;;;;5021102;28;20458;-60
2021/06/04 03:47:01;;;;;;;;;;;24.20;51.70;;;;;;5039459;28;19931;-60
2021/06/04 03:49:26;;;;;;;;;;;24.20;51.60;;;;;;5039984;28;19924;-60
2021/06/04 03:51:52;;;;;;;;;;;24.20;51.70;;;;;;5039284;28;19939;-59
2021/06/04 03:54:20;;;;;;;;;;;24.20;51.60;;;;;;5021527;28;19920;-59
2021/06/04 03:56:45;;;;;;;;;;;24.20;51.60;;;;;;5021271;28;20235;-59
2021/06/04 03:59:10;;;;;;;;;;;24.10;51.50;;;;;;5039200;28;19920;-59
2021/06/04 04:01:47;;;;;;;;;;;24.10;51.60;;;;;;5020963;28;19917;-60
2021/06/04 04:04:12;;;;;;;;;;;24.10;51.60;;;;;;5021262;28;19994;-59
2021/06/04 04:06:38;;;;;;;;;;;24.10;51.60;;;;;;5021451;28;19999;-59
2021/06/04 04:09:04;;;;;;;;;;;24.10;51.60;;;;;;5039048;28;19920;-59
2021/06/04 04:11:29;;;;;;;;;;;24.10;51.70;;;;;;5037823;28;19947;-61
2021/06/04 04:13:55;;;;;;;;;;;24.10;51.70;;;;;;5039461;28;20381;-59
2021/06/04 04:16:20;;;;;;;;;;;24.10;51.80;;;;;;5038673;28;19932;-60
2021/06/04 04:18:46;;;;;;;;;;;24.10;51.80;;;;;;5038590;28;19920;-60
2021/06/04 04:21:11;;;;;;;;;;;24.20;51.80;;;;;;5039975;28;20429;-59
2021/06/04 04:23:41;;;;;;;;;;;24.10;51.70;;;;;;5020324;28;19995;-59
2021/06/04 04:26:06;;;;;;;;;;;24.20;51.80;;;;;;5020396;28;20441;-58
2021/06/04 04:28:33;;;;;;;;;;;24.10;51.80;;;;;;5036434;28;19942;-59
2021/06/04 04:30:59;;;;;;;;;;;24.10;51.70;;;;;;5040722;28;20030;-59
2021/06/04 04:33:24;;;;;;;;;;;24.20;51.80;;;;;;5022237;28;20008;-58
2021/06/04 04:35:50;;;;;;;;;;;24.10;51.70;;;;;;5038230;28;19917;-60
2021/06/04 04:38:20;;;;;;;;;;;24.10;51.80;;;;;;5021233;28;19924;-60
2021/06/04 04:40:46;;;;;;;;;;;24.20;51.90;;;;;;5039327;28;20004;-59
2021/06/04 04:43:12;;;;;;;;;;;24.10;52.00;;;;;;5021766;28;20024;-59
2021/06/04 04:45:37;;;;;;;;;;;24.20;52.20;;;;;;5022031;28;19920;-59
2021/06/04 04:48:03;;;;;;;;;;;24.10;52.20;;;;;;5039669;28;19921;-59
2021/06/04 04:50:28;;;;;;;;;;;24.20;52.30;;;;;;5040573;28;19917;-60
2021/06/04 04:52:54;;;;;;;;;;;24.10;52.10;;;;;;5021524;28;20374;-60
2021/06/04 04:55:20;;;;;;;;;;;24.10;52.00;;;;;;5021682;28;19978;-58
2021/06/04 04:57:45;;;;;;;;;;;24.20;52.00;;;;;;5039536;28;19928;-60
2021/06/04 05:00:12;;;;;;;;;;;24.10;51.90;;;;;;5038713;28;20296;-60
2021/06/04 05:02:37;;;;;;;;;;;24.20;51.70;;;;;;5039390;28;20387;-61
2021/06/04 05:05:04;;;;;;;;;;;24.20;51.60;;;;;;5021229;28;20008;-60
2021/06/04 05:07:29;;;;;;;;;;;24.10;51.70;;;;;;5020660;28;19928;-64
2021/06/04 05:09:57;;;;;;;;;;;24.10;51.60;;;;;;5039937;28;19921;-60
2021/06/04 05:12:23;;;;;;;;;;;24.10;51.80;;;;;;5021381;28;19921;-59
2021/06/04 05:14:48;;;;;;;;;;;24.10;51.60;;;;;;5039190;28;19921;-60
2021/06/04 05:17:14;;;;;;;;;;;24.10;51.50;;;;;;5020774;28;19924;-59
2021/06/04 05:19:42;;;;;;;;;;;24.10;51.50;;;;;;5038451;28;20313;-58
2021/06/04 05:22:08;;;;;;;;;;;24.10;51.50;;;;;;5039777;28;19960;-60
2021/06/04 05:24:33;;;;;;;;;;;24.10;51.40;;;;;;5041655;28;19956;-60
2021/06/04 05:26:59;;;;;;;;;;;24.10;51.40;;;;;;5043181;28;20008;-60
2021/06/04 05:29:24;;;;;;;;;;;24.10;51.20;;;;;;5043098;28;19921;-59
2021/06/04 05:31:50;;;;;;;;;;;24.10;51.30;;;;;;5042698;28;20599;-60
2021/06/04 05:34:15;;;;;;;;;;;24.10;51.50;;;;;;5024515;28;19931;-59
2021/06/04 05:36:40;;;;;;;;;;;24.10;52.20;;;;;;5041537;28;19921;-59
2021/06/04 05:39:16;;;;;;;;;;;24.10;51.70;;;;;;5042417;28;19924;-60
2021/06/04 05:41:43;;;;;;;;;;;24.10;51.70;;;;;;5024444;28;19913;-60
2021/06/04 05:44:12;;;;;;;;;;;24.10;51.60;;;;;;5021148;28;19995;-61
2021/06/04 05:46:38;;;;;;;;;;;24.10;51.50;;;;;;5026252;28;19913;-61
2021/06/04 05:49:03;;;;;;;;;;;24.10;51.50;;;;;;5025378;28;19982;-59
2021/06/04 05:51:29;;;;;;;;;;;24.10;51.40;;;;;;5041568;28;19917;-61
2021/06/04 05:56:24;;;;;;;;;;;24.10;51.10;;;;;;5059785;28;19971;-59
2021/06/04 05:58:50;;;;;;;;;;;24.10;51.00;;;;;;5063762;28;20356;-60
2021/06/04 06:01:17;;;;;;;;;;;24.10;50.90;;;;;;5045505;28;19951;-62
2021/06/04 06:03:42;;;;;;;;;;;24.10;51.10;;;;;;5055221;28;19916;-61
2021/06/04 06:06:08;;;;;;;;;;;24.10;51.00;;;;;;5053973;28;19920;-61
2021/06/04 06:08:33;;;;;;;;;;;24.10;51.00;;;;;;5037291;28;20395;-60
2021/06/04 06:10:59;;;;;;;;;;;24.10;51.00;;;;;;5034790;28;19916;-61
2021/06/04 06:13:24;;;;;;;;;;;24.10;51.00;;;;;;5057315;28;19916;-62
2021/06/04 06:15:50;;;;;;;;;;;24.00;51.00;;;;;;5051845;28;20537;-60
2021/06/04 06:18:16;;;;;;;;;;;24.10;50.70;;;;;;5057981;28;19927;-62
2021/06/04 06:20:43;;;;;;;;;;;24.10;50.70;;;;;;5053909;28;19975;-61
2021/06/04 06:23:08;;;;;;;;;;;24.10;50.60;;;;;;5047161;28;19921;-61
2021/06/04 06:25:36;;;;;;;;;;;24.10;50.60;;;;;;5035042;28;19916;-62
2021/06/04 06:28:02;;;;;;;;;;;24.10;50.60;;;;;;5041289;28;20001;-62
2021/06/04 06:30:28;;;;;;;;;;;24.10;50.80;;;;;;5047319;28;20404;-62
2021/06/04 06:32:54;;;;;;;;;;;24.10;50.60;;;;;;5046895;28;20398;-61
2021/06/04 06:35:24;;;;;;;;;;;24.10;50.70;;;;;;5055278;28;19968;-61
2021/06/04 06:37:50;;;;;;;;;;;24.10;50.60;;;;;;5050697;28;20336;-60
2021/06/04 06:40:15;;;;;;;;;;;24.00;50.50;;;;;;5050092;28;20861;-61
2021/06/04 06:42:40;;;;;;;;;;;24.00;50.50;;;;;;5049273;28;19925;-61
2021/06/04 06:45:08;;;;;;;;;;;24.00;50.70;;;;;;5052102;28;19913;-59
2021/06/04 06:47:33;;;;;;;;;;;24.00;50.70;;;;;;5050223;28;20469;-61
2021/06/04 06:50:00;;;;;;;;;;;24.00;50.60;;;;;;5053282;28;19917;-59
2021/06/04 06:52:25;;;;;;;;;;;24.00;50.70;;;;;;5048522;28;20263;-61
2021/06/04 06:54:52;;;;;;;;;;;24.00;50.70;;;;;;5042063;28;19939;-60
2021/06/04 06:57:17;;;;;;;;;;;24.00;50.10;;;;;;5033089;28;19999;-60
2021/06/04 06:59:43;;;;;;;;;;;24.00;50.20;;;;;;5051910;28;19920;-60
2021/06/04 07:02:08;;;;;;;;;;;24.00;50.10;;;;;;5047585;28;19917;-61
2021/06/04 07:04:34;;;;;;;;;;;24.00;50.00;;;;;;5030463;28;20290;-60
2021/06/04 07:06:59;;;;;;;;;;;24.00;50.10;;;;;;5041493;28;19940;-60
2021/06/04 07:09:26;;;;;;;;;;;24.00;50.00;;;;;;5054093;28;19917;-62
2021/06/04 07:11:54;;;;;;;;;;;24.00;50.10;;;;;;5045786;28;20352;-60
2021/06/04 07:14:20;;;;;;;;;;;24.00;50.10;;;;;;5042191;28;19967;-62
2021/06/04 07:16:46;;;;;;;;;;;24.00;50.00;;;;;;5029088;28;20401;-61
2021/06/04 07:19:11;;;;;;;;;;;24.00;50.10;;;;;;5061973;28;19927;-61
2021/06/04 07:21:37;;;;;;;;;;;24.00;49.40;;;;;;5040851;28;20450;-61
2021/06/04 07:24:02;;;;;;;;;;;24.00;49.70;;;;;;5050762;28;19917;-61
2021/06/04 07:26:28;;;;;;;;;;;24.00;49.50;;;;;;5050283;28;19939;-60
2021/06/04 07:29:00;;;;;;;;;;;24.00;49.70;;;;;;5041994;28;19913;-61
2021/06/04 07:31:25;;;;;;;;;;;24.00;50.60;;;;;;5038944;28;19916;-62
2021/06/04 07:33:52;;;;;;;;;;;24.00;49.70;;;;;;5053257;28;20026;-61
2021/06/04 07:36:21;;;;;;;;;;;24.00;49.80;;;;;;5043350;28;19917;-61
2021/06/04 07:38:47;;;;;;;;;;;24.00;50.00;;;;;;5051519;28;20540;-61
2021/06/04 07:41:13;;;;;;;;;;;24.00;50.00;;;;;;5057526;28;20023;-60
2021/06/04 07:43:39;;;;;;;;;;;24.00;50.10;;;;;;5050852;28;20290;-61
2021/06/04 07:46:06;;;;;;;;;;;24.00;50.00;;;;;;5049023;28;20391;-60
2021/06/04 07:48:31;;;;;;;;;;;23.90;50.60;;;;;;5048855;28;19977;-61
2021/06/04 07:50:56;;;;;;;;;;;24.00;50.10;;;;;;5051926;28;19920;-60
2021/06/04 07:53:27;;;;;;;;;;;23.90;50.20;;;;;;5052903;28;19991;-61
2021/06/04 07:55:53;;;;;;;;;;;24.00;50.30;;;;;;5026530;28;19924;-61
2021/06/04 07:58:18;;;;;;;;;;;23.90;50.20;;;;;;5060961;28;20013;-62
2021/06/04 08:00:44;;;;;;;;;;;24.00;50.20;;;;;;5047530;28;19916;-61
2021/06/04 08:03:09;;;;;;;;;;;23.90;50.20;;;;;;5046969;28;20410;-61
2021/06/04 08:05:35;;;;;;;;;;;23.90;50.40;;;;;;5034124;28;20132;-60
2021/06/04 08:08:03;;;;;;;;;;;23.90;50.50;;;;;;5048037;28;19975;-61
2021/06/04 08:10:28;;;;;;;;;;;23.90;50.60;;;;;;5045628;28;19963;-61
2021/06/04 08:12:54;;;;;;;;;;;23.90;50.70;;;;;;5031395;28;19916;-61
2021/06/04 08:15:27;;;;;;;;;;;23.90;50.80;;;;;;5056212;28;19913;-60
2021/06/04 08:17:52;;;;;;;;;;;23.90;50.90;;;;;;5053962;28;19913;-60
2021/06/04 08:20:22;;;;;;;;;;;23.90;51.00;;;;;;5048985;28;19986;-59
2021/06/04 08:22:48;;;;;;;;;;;23.90;51.10;;;;;;5026805;28;19966;-60
2021/06/04 08:25:13;;;;;;;;;;;23.90;51.30;;;;;;5050238;28;19912;-62
2021/06/04 08:27:39;;;;;;;;;;;23.90;51.40;;;;;;5052066;28;20616;-60
2021/06/04 08:30:04;;;;;;;;;;;23.90;51.40;;;;;;5044567;28;19917;-60
2021/06/04 08:32:30;;;;;;;;;;;23.90;51.60;;;;;;5048456;28;20534;-60
2021/06/04 08:34:55;;;;;;;;;;;23.90;51.70;;;;;;5052570;28;19912;-61
2021/06/04 08:37:21;;;;;;;;;;;23.90;51.70;;;;;;5042302;28;19924;-59
2021/06/04 08:39:46;;;;;;;;;;;23.90;51.80;;;;;;5059870;28;19921;-59
2021/06/04 08:42:33;;;;;;;;;;;23.90;51.80;;;;;;5060011;28;19924;-59
2021/06/04 08:44:58;;;;;;;;;;;23.90;51.90;;;;;;5051296;28;19986;-62
2021/06/04 08:47:25;;;;;;;;;;;23.90;51.90;;;;;;5051542;28;19963;-61
2021/06/04 08:50:09;;;;;;;;;;;23.90;51.90;;;;;;5027669;28;19913;-60
2021/06/04 08:52:53;;;;;;;;;;;23.90;52.00;;;;;;5048551;28;20310;-60
2021/06/04 08:55:27;;;;;;;;;;;23.90;52.00;;;;;;5053641;28;19928;-61
2021/06/04 08:57:55;;;;;;;;;;;23.90;52.10;;;;;;5027545;28;19916;-61
2021/06/04 09:00:29;;;;;;;;;;;23.90;52.10;;;;;;5038718;28;19916;-60
2021/06/04 09:02:59;;;;;;;;;;;23.80;52.00;;;;;;5034769;28;19917;-59
2021/06/04 09:05:41;;;;;;;;;;;23.90;52.10;;;;;;5022516;28;19927;-61
2021/06/04 09:08:09;;;;;;;;;;;23.90;52.10;;;;;;5051542;28;19923;-60
2021/06/04 09:10:36;;;;;;;;;;;23.90;52.10;;;;;;5051529;28;19917;-59
2021/06/04 09:13:12;;;;;;;;;;;23.80;51.40;;;;;;5025934;28;20374;-60
2021/06/04 09:15:39;;;;;;;;;;;23.80;51.70;;;;;;5060402;28;19913;-61
2021/06/04 09:18:06;;;;;;;;;;;23.90;51.80;;;;;;5037809;28;19926;-61
2021/06/04 09:20:42;;;;;;;;;;;23.90;51.70;;;;;;5037131;28;19921;-61
2021/06/04 09:23:08;;;;;;;;;;;23.90;51.60;;;;;;5018774;28;20521;-61
2021/06/04 09:25:34;;;;;;;;;;;23.80;50.50;;;;;;5054426;28;19917;-59
2021/06/04 09:28:09;;;;;;;;;;;23.80;49.70;;;;;;5033638;28;19917;-60
2021/06/04 09:30:39;;;;;;;;;;;23.80;50.50;;;;;;5027716;28;19920;-61
2021/06/04 09:33:24;;;;;;;;;;;23.80;50.50;;;;;;5040754;28;19913;-61
2021/06/04 09:36:09;;;;;;;;;;;23.80;50.60;;;;;;5044238;28;20562;-61
2021/06/04 09:38:48;;;;;;;;;;;23.80;50.80;;;;;;5047363;28;19917;-60
2021/06/04 09:41:26;;;;;;;;;;;23.80;50.70;;;;;;5029895;28;20796;-60
2021/06/04 09:44:03;;;;;;;;;;;23.80;50.80;;;;;;5017618;28;20465;-62
2021/06/04 09:46:32;;;;;;;;;;;23.80;50.80;;;;;;5052899;28;20464;-61
2021/06/04 09:48:58;;;;;;;;;;;23.80;50.80;;;;;;5032851;28;20007;-60
2021/06/04 09:51:26;;;;;;;;;;;23.80;50.90;;;;;;5054966;28;19916;-60
2021/06/04 09:53:52;;;;;;;;;;;23.80;51.60;;;;;;5026098;28;19920;-62
2021/06/04 09:56:25;;;;;;;;;;;23.80;50.70;;;;;;5036192;28;19928;-61
2021/06/04 09:58:50;;;;;;;;;;;23.80;50.70;;;;;;5041047;28;19916;-60
2021/06/04 10:01:16;;;;;;;;;;;23.80;50.80;;;;;;5051588;28;19916;-62
2021/06/04 10:03:42;;;;;;;;;;;23.80;51.00;;;;;;5033775;28;19916;-62
2021/06/04 10:06:07;;;;;;;;;;;23.80;51.00;;;;;;5051519;28;19917;-61
2021/06/04 10:08:46;;;;;;;;;;;23.80;50.70;;;;;;5048443;28;19993;-59
2021/06/04 10:11:26;;;;;;;;;;;23.80;51.00;;;;;;5039578;28;20293;-60
2021/06/04 10:13:51;;;;;;;;;;;23.80;49.70;;;;;;5054158;28;20069;-61
2021/06/04 10:19:23;;;;;;;;;;;23.80;50.10;;;;;;5036689;28;19920;-62
2021/06/04 10:22:07;;;;;;;;;;;23.80;49.60;;;;;;5044124;28;19920;-60
2021/06/04 10:24:37;;;;;;;;;;;23.80;49.90;;;;;;5056808;28;19948;-60
2021/06/04 10:27:04;;;;;;;;;;;23.80;50.20;;;;;;5040330;28;19935;-61
2021/06/04 10:29:30;;;;;;;;;;;23.80;50.00;;;;;;5049499;28;19913;-61
2021/06/04 10:31:56;;;;;;;;;;;23.80;49.80;;;;;;5059204;28;19927;-61
2021/06/04 10:34:32;;;;;;;;;;;23.80;50.30;;;;;;5041167;28;19916;-61
2021/06/04 10:36:58;;;;;;;;;;;23.80;50.40;;;;;;5040473;28;19917;-61
2021/06/04 10:39:29;;;;;;;;;;;23.80;50.50;;;;;;5054996;28;19913;-60
2021/06/04 10:42:13;;;;;;;;;;;23.80;50.60;;;;;;5028297;28;20018;-60
2021/06/04 10:44:49;;;;;;;;;;;23.70;50.60;;;;;;5044923;28;19916;-61
2021/06/04 10:47:27;;;;;;;;;;;23.80;50.60;;;;;;5032650;28;20007;-61
2021/06/04 10:50:03;;;;;;;;;;;23.80;50.50;;;;;;5036596;28;19917;-60
2021/06/04 10:52:47;;;;;;;;;;;23.80;50.60;;;;;;5037435;28;20802;-59
2021/06/04 10:55:15;;;;;;;;;;;23.80;50.50;;;;;;5040184;28;19925;-61
2021/06/04 10:57:47;;;;;;;;;;;23.80;50.40;;;;;;5036869;28;19973;-60
2021/06/04 11:00:14;;;;;;;;;;;23.70;50.60;;;;;;5042666;28;19966;-60
2021/06/04 11:02:44;;;;;;;;;;;23.70;50.70;;;;;;5035918;28;20058;-60
2021/06/04 11:05:28;;;;;;;;;;;23.70;50.70;;;;;;5031752;28;19913;-60
2021/06/04 11:08:08;;;;;;;;;;;23.70;50.70;;;;;;5050663;28;20328;-62
2021/06/04 11:10:40;;;;;;;;;;;23.70;50.60;;;;;;5056510;28;19966;-59
2021/06/04 11:13:27;;;;;;;;;;;23.70;50.50;;;;;;5035046;28;20076;-60
2021/06/04 11:16:12;;;;;;;;;;;23.70;50.70;;;;;;5031218;28;19913;-60
2021/06/04 11:18:39;;;;;;;;;;;23.70;50.40;;;;;;5047924;28;19992;-61
2021/06/04 11:21:07;;;;;;;;;;;23.70;50.60;;;;;;5035781;28;19988;-59
2021/06/04 11:23:38;;;;;;;;;;;23.70;50.60;;;;;;5032843;28;19945;-60
2021/06/04 11:26:08;;;;;;;;;;;23.70;50.60;;;;;;5050357;28;19924;-62
2021/06/04 11:28:33;;;;;;;;;;;23.70;50.80;;;;;;5032751;28;20033;-60
2021/06/04 11:30:59;;;;;;;;;;;23.70;50.80;;;;;;5059790;28;20384;-59
2021/06/04 11:33:26;;;;;;;;;;;23.70;50.60;;;;;;5042573;28;19923;-59
2021/06/04 11:35:59;;;;;;;;;;;23.70;50.50;;;;;;5052016;28;19916;-60
2021/06/04 11:38:32;;;;;;;;;;;23.70;50.70;;;;;;5029958;28;19922;-60
2021/06/04 11:41:05;;;;;;;;;;;23.70;51.00;;;;;;5024799;28;19916;-60
2021/06/04 11:43:31;;;;;;;;;;;23.70;51.00;;;;;;5028681;28;20680;-61
2021/06/04 11:46:13;;;;;;;;;;;23.70;50.80;;;;;;5032589;28;20039;-60
2021/06/04 11:48:39;;;;;;;;;;;23.70;51.00;;;;;;5047482;28;20351;-60
2021/06/04 11:51:17;;;;;;;;;;;23.70;50.90;;;;;;5049697;28;20003;-60
2021/06/04 11:53:42;;;;;;;;;;;23.70;51.00;;;;;;5048496;28;19927;-60
2021/06/04 11:56:09;;;;;;;;;;;23.70;51.00;;;;;;5069386;22;19920;-53
2021/06/04 11:58:45;;;;;;;;;;;23.70;51.00;;;;;;5019674;28;19917;-57
2021/06/04 12:01:14;;;;;;;;;;;23.70;50.90;;;;;;5033630;28;19924;-60
2021/06/04 12:03:48;;;;;;;;;;;23.70;50.80;;;;;;5008714;28;20381;-59
2021/06/04 12:06:22;;;;;;;;;;;23.70;50.80;;;;;;5012248;28;19919;-60
2021/06/04 12:08:48;;;;;;;;;;;23.70;50.90;;;;;;5029772;28;19920;-59
2021/06/04 12:11:16;;;;;;;;;;;23.70;51.00;;;;;;5033971;28;20408;-61
2021/06/04 12:13:47;;;;;;;;;;;23.70;51.20;;;;;;5034312;28;19953;-60
2021/06/04 12:16:28;;;;;;;;;;;23.70;51.30;;;;;;5017596;28;20015;-59
2021/06/04 12:18:58;;;;;;;;;;;23.70;51.40;;;;;;5039902;28;19952;-60
2021/06/04 12:21:43;;;;;;;;;;;23.70;51.30;;;;;;5040108;28;19967;-61
2021/06/04 12:24:18;;;;;;;;;;;23.70;51.30;;;;;;5029660;28;19963;-58
2021/06/04 12:26:53;;;;;;;;;;;23.70;51.60;;;;;;5017637;28;20004;-58
2021/06/04 12:29:21;;;;;;;;;;;23.70;51.40;;;;;;5004965;28;19928;-60
2021/06/04 12:32:00;;;;;;;;;;;23.70;51.60;;;;;;5020671;28;20336;-61
2021/06/04 12:34:31;;;;;;;;;;;23.70;51.70;;;;;;5034449;28;20003;-58
2021/06/04 12:37:24;;;;;;;;;;;23.70;51.70;;;;;;5027542;28;19967;-56
2021/06/04 12:40:07;;;;;;;;;;;23.70;51.70;;;;;;5021935;28;19924;-60
2021/06/04 12:42:35;;;;;;;;;;;23.70;51.70;;;;;;5029968;28;19988;-58
2021/06/04 12:45:16;;;;;;;;;;;23.70;51.70;;;;;;5026181;28;19966;-59
2021/06/04 12:47:44;;;;;;;;;;;23.80;51.80;;;;;;5032055;28;19967;-59
2021/06/04 12:50:10;;;;;;;;;;;23.70;51.80;;;;;;5013814;28;19952;-61
2021/06/04 12:52:35;;;;;;;;;;;23.70;51.80;;;;;;5030146;28;19952;-56
2021/06/04 12:55:30;;;;;;;;;;;23.70;52.00;;;;;;5026674;28;19917;-61
2021/06/04 12:58:08;;;;;;;;;;;23.70;52.00;;;;;;5016069;28;20020;-55
2021/06/04 13:00:34;;;;;;;;;;;23.80;51.80;;;;;;5036328;28;19917;-56
2021/06/04 13:03:14;;;;;;;;;;;23.70;51.70;;;;;;5028278;28;19982;-58
2021/06/04 13:05:43;;;;;;;;;;;23.70;51.70;;;;;;5026325;28;19928;-58
2021/06/04 13:08:09;;;;;;;;;;;23.80;51.70;;;;;;5000009;28;19917;-55
2021/06/04 13:10:37;;;;;;;;;;;23.80;51.80;;;;;;4998943;28;19914;-58
2021/06/04 13:13:05;;;;;;;;;;;23.70;51.80;;;;;;5020020;28;20294;-59
2021/06/04 13:15:30;;;;;;;;;;;23.70;51.70;;;;;;5029352;28;19960;-57
2021/06/04 13:18:03;;;;;;;;;;;23.70;51.70;;;;;;5027378;28;19970;-57
2021/06/04 13:20:39;;;;;;;;;;;23.80;51.80;;;;;;5031400;28;19925;-58
2021/06/04 13:23:07;;;;;;;;;;;23.80;51.70;;;;;;5032445;28;19913;-58
2021/06/04 13:25:33;;;;;;;;;;;23.80;51.60;;;;;;5039818;28;20389;-54
2021/06/04 13:28:18;;;;;;;;;;;23.80;52.10;;;;;;5026652;28;19917;-59
2021/06/04 13:30:48;;;;;;;;;;;23.70;51.30;;;;;;5032286;28;19917;-59
2021/06/04 13:33:16;;;;;;;;;;;23.80;51.40;;;;;;5014153;28;19913;-54
2021/06/04 13:35:43;;;;;;;;;;;23.80;51.40;;;;;;5029541;28;20619;-54
2021/06/04 13:38:10;;;;;;;;;;;23.80;51.40;;;;;;5012024;28;19913;-58
2021/06/04 13:40:37;;;;;;;;;;;23.80;51.30;;;;;;5003849;28;19917;-54
2021/06/04 13:43:06;;;;;;;;;;;23.80;51.30;;;;;;5028378;28;19917;-60
2021/06/04 13:45:35;;;;;;;;;;;23.80;51.30;;;;;;5026555;28;20380;-55
2021/06/04 13:48:03;;;;;;;;;;;23.80;51.40;;;;;;5025119;28;20322;-58
2021/06/04 13:50:28;;;;;;;;;;;23.80;51.20;;;;;;5016266;28;19913;-61
2021/06/04 13:52:55;;;;;;;;;;;23.80;51.10;;;;;;5021232;28;19936;-61
2021/06/04 13:55:20;;;;;;;;;;;23.80;51.40;;;;;;5000442;28;19913;-59
2021/06/04 13:57:46;;;;;;;;;;;23.80;51.00;;;;;;5015874;28;19932;-60
2021/06/04 14:00:11;;;;;;;;;;;23.80;51.00;;;;;;5028945;28;19917;-60
2021/06/04 14:02:36;;;;;;;;;;;23.80;51.10;;;;;;5035183;28;20418;-60
2021/06/04 14:05:12;;;;;;;;;;;23.80;51.20;;;;;;5014817;28;20358;-61
2021/06/04 14:07:39;;;;;;;;;;;23.80;51.10;;;;;;5001968;28;19971;-55
2021/06/04 14:10:14;;;;;;;;;;;23.80;51.00;;;;;;5012597;28;19967;-58
2021/06/04 14:12:39;;;;;;;;;;;23.80;51.00;;;;;;5043100;28;19913;-58
2021/06/04 14:15:25;;;;;;;;;;;23.80;50.90;;;;;;5023437;28;19962;-58
2021/06/04 14:17:50;;;;;;;;;;;23.70;50.80;;;;;;5040972;28;19929;-54
2021/06/04 14:20:31;;;;;;;;;;;23.80;50.90;;;;;;5039864;28;19916;-60
2021/06/04 14:22:56;;;;;;;;;;;23.80;51.00;;;;;;5017213;28;20330;-56
2021/06/04 14:25:22;;;;;;;;;;;23.80;50.90;;;;;;5025803;28;19914;-56
2021/06/04 14:27:54;;;;;;;;;;;23.80;50.90;;;;;;5016855;28;20015;-58
2021/06/04 14:30:24;;;;;;;;;;;23.80;50.80;;;;;;5029793;28;19917;-56
2021/06/04 14:33:06;;;;;;;;;;;23.80;50.90;;;;;;5021205;28;20100;-57